Time;durP1;ratioP1;P1;durP2;ratioP2;P2;SDS_P1;SDS_P2;PMS_P1;PMS_P2;Temp;Humidity;BMP_temperature;BMP_pressure;BME280_temperature;BME280_humidity;BME280_pressure;Samples;Min_cycle;Max_cycle;Signal;HPM_P1;HPM_P2
2023/05/13 00:01:28;;;;;;;1.60;1.50;;;18.80;66.00;;;;;;4957814;28;20288;-67
2023/05/13 00:03:54;;;;;;;1.67;1.58;;;18.80;66.00;;;;;;4974629;28;20288;-67
2023/05/13 00:06:19;;;;;;;1.50;1.40;;;18.80;66.00;;;;;;4974589;28;20213;-66
2023/05/13 00:08:45;;;;;;;1.63;1.52;;;18.80;66.00;;;;;;4957219;28;20217;-67
2023/05/13 00:11:11;;;;;;;1.45;1.35;;;18.80;66.00;;;;;;4957193;28;20193;-67
2023/05/13 00:13:37;;;;;;;1.60;1.50;;;18.80;66.00;;;;;;4957399;28;20669;-67
2023/05/13 00:16:03;;;;;;;1.92;1.83;;;18.80;66.00;;;;;;4956678;28;20229;-67
2023/05/13 00:18:28;;;;;;;1.60;1.50;;;18.80;66.00;;;;;;4957290;28;20194;-67
2023/05/13 00:20:55;;;;;;;1.65;1.55;;;18.80;66.00;;;;;;4956987;28;20284;-67
2023/05/13 00:23:21;;;;;;;1.50;1.40;;;18.80;66.00;;;;;;4956523;28;20324;-66
2023/05/13 00:25:47;;;;;;;1.55;1.45;;;18.80;66.00;;;;;;4974183;28;20220;-66
2023/05/13 00:28:13;;;;;;;1.52;1.38;;;18.90;66.10;;;;;;4956914;28;20182;-67
2023/05/13 00:30:42;;;;;;;1.27;1.20;;;18.80;66.00;;;;;;4957066;28;20280;-67
2023/05/13 00:33:08;;;;;;;1.60;1.50;;;18.80;66.00;;;;;;4973229;28;20196;-67
2023/05/13 00:35:34;;;;;;;1.60;1.50;;;18.80;66.00;;;;;;4956645;28;20229;-66
2023/05/13 00:38:00;;;;;;;1.52;1.42;;;18.80;66.80;;;;;;4956636;28;20185;-67
2023/05/13 00:40:26;;;;;;;1.38;1.27;;;18.80;66.00;;;;;;4956575;28;20597;-67
2023/05/13 00:42:53;;;;;;;1.88;1.77;;;18.80;66.00;;;;;;4956630;28;20187;-67
2023/05/13 00:45:20;;;;;;;1.58;1.48;;;18.80;66.00;;;;;;4956347;28;20279;-67
2023/05/13 00:47:48;;;;;;;1.48;1.38;;;18.80;66.00;;;;;;4941135;28;20197;-67
2023/05/13 00:50:14;;;;;;;1.17;1.08;;;18.80;66.00;;;;;;4956467;28;20194;-67
2023/05/13 00:52:41;;;;;;;1.30;1.20;;;18.80;66.00;;;;;;4956809;28;20177;-67
2023/05/13 00:55:09;;;;;;;1.40;1.30;;;18.80;66.00;;;;;;4956224;28;20241;-67
2023/05/13 00:57:37;;;;;;;1.45;1.35;;;18.80;66.00;;;;;;4956312;28;20296;-66
2023/05/13 01:00:04;;;;;;;1.50;1.40;;;18.80;66.00;;;;;;4956321;28;20228;-67
2023/05/13 01:02:42;;;;;;;1.50;1.40;;;18.80;66.00;;;;;;4956503;28;20208;-67
2023/05/13 01:05:11;;;;;;;1.60;1.50;;;18.80;66.00;;;;;;4940403;28;20224;-67
2023/05/13 01:08:02;;;;;;;1.60;1.50;;;18.80;66.00;;;;;;4972205;28;20208;-66
2023/05/13 01:11:14;;;;;;;1.77;1.52;;;18.80;66.00;;;;;;4940336;28;20221;-67
2023/05/13 01:13:45;;;;;;;1.38;1.27;;;18.80;66.00;;;;;;4966299;28;20213;-67
2023/05/13 01:16:28;;;;;;;1.80;1.70;;;18.80;66.00;;;;;;4955842;28;20217;-66
2023/05/13 01:19:00;;;;;;;1.40;1.30;;;18.80;66.00;;;;;;4956222;28;20618;-67
2023/05/13 01:21:28;;;;;;;1.30;1.20;;;18.80;66.00;;;;;;4948870;28;20189;-67
2023/05/13 01:23:54;;;;;;;1.38;1.27;;;18.80;66.00;;;;;;4940257;28;20185;-67
2023/05/13 01:26:23;;;;;;;1.42;1.40;;;18.80;66.00;;;;;;4963896;28;20692;-67
2023/05/13 01:28:49;;;;;;;1.50;1.40;;;18.80;65.90;;;;;;4956092;28;20190;-67
2023/05/13 01:31:18;;;;;;;1.55;1.45;;;18.80;65.90;;;;;;4956037;28;20293;-68
2023/05/13 01:33:44;;;;;;;1.27;1.27;;;18.80;66.00;;;;;;4973046;28;20240;-67
2023/05/13 01:36:11;;;;;;;1.40;1.30;;;18.80;66.00;;;;;;4939891;28;20249;-66
2023/05/13 01:38:40;;;;;;;1.52;1.10;;;18.80;66.00;;;;;;4940664;28;20185;-67
2023/05/13 01:41:07;;;;;;;1.50;1.40;;;18.80;65.90;;;;;;4940354;28;20186;-67
2023/05/13 01:43:35;;;;;;;1.60;1.50;;;18.80;65.90;;;;;;4940428;28;20193;-67
2023/05/13 01:46:01;;;;;;;1.50;1.40;;;18.80;65.90;;;;;;4969274;28;20214;-67
2023/05/13 01:48:26;;;;;;;1.30;1.30;;;18.80;65.90;;;;;;4964001;28;20190;-67
2023/05/13 01:50:54;;;;;;;1.50;1.40;;;18.80;65.90;;;;;;4956007;28;20186;-67
2023/05/13 01:53:20;;;;;;;1.50;1.40;;;18.80;65.90;;;;;;4955820;28;20185;-67
2023/05/13 01:55:47;;;;;;;1.50;1.40;;;18.80;65.90;;;;;;4988009;28;20224;-66
2023/05/13 01:58:13;;;;;;;1.40;1.30;;;18.80;66.00;;;;;;4955569;28;20189;-67
2023/05/13 02:00:39;;;;;;;1.30;1.30;;;18.80;65.90;;;;;;4972291;28;20189;-67
2023/05/13 02:03:05;;;;;;;1.23;1.20;;;18.80;65.90;;;;;;4955923;28;20690;-67
2023/05/13 02:05:32;;;;;;;1.33;1.23;;;18.80;65.90;;;;;;4939849;28;20213;-67
2023/05/13 02:07:59;;;;;;;1.30;1.30;;;18.80;65.90;;;;;;4955875;28;20192;-67
2023/05/13 02:10:25;;;;;;;1.33;1.23;;;18.80;65.90;;;;;;4955564;28;20189;-67
2023/05/13 02:12:51;;;;;;;1.40;1.30;;;18.80;65.90;;;;;;4955621;28;20273;-67
2023/05/13 02:15:17;;;;;;;1.27;1.25;;;18.80;65.80;;;;;;4959825;28;20268;-66
2023/05/13 02:17:43;;;;;;;1.63;1.52;;;18.80;65.90;;;;;;4939646;28;20204;-67
2023/05/13 02:20:10;;;;;;;1.55;1.15;;;18.70;65.70;;;;;;4955869;28;20186;-67
2023/05/13 02:22:35;;;;;;;1.45;1.35;;;18.80;65.90;;;;;;4959215;28;20332;-66
2023/05/13 02:25:03;;;;;;;1.10;1.10;;;18.80;65.90;;;;;;4959476;28;20278;-66
2023/05/13 02:27:29;;;;;;;2.05;1.40;;;18.80;65.90;;;;;;4958859;28;20272;-67
2023/05/13 02:29:54;;;;;;;1.40;1.30;;;18.80;65.80;;;;;;4959309;28;20189;-67
2023/05/13 02:32:21;;;;;;;1.30;1.20;;;18.70;65.70;;;;;;4959193;28;20194;-67
2023/05/13 02:34:47;;;;;;;1.50;1.40;;;18.80;65.90;;;;;;4958906;28;20209;-66
2023/05/13 02:37:12;;;;;;;1.02;1.02;;;18.80;65.80;;;;;;4958639;28;20658;-66
2023/05/13 02:39:46;;;;;;;1.35;1.30;;;18.70;65.70;;;;;;4972027;28;20183;-67
2023/05/13 02:42:12;;;;;;;1.70;1.30;;;18.80;65.80;;;;;;4957448;28;20229;-67
2023/05/13 02:44:39;;;;;;;1.52;1.42;;;18.80;65.80;;;;;;4959220;28;20229;-67
2023/05/13 02:47:05;;;;;;;1.40;1.30;;;18.80;65.80;;;;;;4958678;28;20189;-67
2023/05/13 02:49:31;;;;;;;1.48;1.38;;;18.70;65.70;;;;;;4959038;28;20268;-67
2023/05/13 02:51:56;;;;;;;1.10;1.10;;;18.70;65.70;;;;;;4958665;28;20177;-67
2023/05/13 02:54:29;;;;;;;1.50;1.40;;;18.70;65.70;;;;;;4958586;28;20197;-67
2023/05/13 02:56:55;;;;;;;1.30;1.20;;;18.70;66.50;;;;;;4941343;28;20221;-67
2023/05/13 02:59:21;;;;;;;1.70;1.60;;;18.70;65.60;;;;;;4958421;28;20185;-67
2023/05/13 03:01:47;;;;;;;1.30;1.20;;;18.80;65.70;;;;;;4942439;28;20193;-66
2023/05/13 03:04:12;;;;;;;1.50;1.40;;;18.70;65.50;;;;;;4972558;28;20335;-67
2023/05/13 03:06:38;;;;;;;1.33;1.23;;;18.80;65.70;;;;;;4942542;28;20300;-67
2023/05/13 03:09:04;;;;;;;1.45;1.35;;;18.80;65.70;;;;;;4958652;28;20221;-66
2023/05/13 03:11:31;;;;;;;1.33;1.33;;;18.70;65.50;;;;;;4958300;28;20193;-67
2023/05/13 03:13:57;;;;;;;1.40;1.30;;;18.70;65.60;;;;;;4958674;28;20290;-67
2023/05/13 03:16:23;;;;;;;1.30;1.20;;;18.70;65.50;;;;;;4957757;28;20221;-67
2023/05/13 03:18:49;;;;;;;1.55;1.40;;;18.70;65.50;;;;;;4958177;28;20186;-67
2023/05/13 03:21:16;;;;;;;1.67;1.50;;;18.70;65.60;;;;;;4942712;28;20189;-67
2023/05/13 03:23:43;;;;;;;1.48;1.38;;;18.70;65.50;;;;;;4971238;28;20186;-67
2023/05/13 03:26:09;;;;;;;1.60;1.50;;;18.80;65.70;;;;;;4971378;28;20210;-65
2023/05/13 03:28:35;;;;;;;1.15;1.13;;;18.70;66.30;;;;;;4942285;28;20668;-67
2023/05/13 03:31:01;;;;;;;1.55;1.45;;;18.70;65.50;;;;;;4957986;28;20193;-67
2023/05/13 03:33:29;;;;;;;1.30;1.25;;;18.70;65.50;;;;;;4956840;28;20245;-67
2023/05/13 03:35:55;;;;;;;1.20;1.20;;;18.70;65.50;;;;;;4957714;28;20222;-67
2023/05/13 03:38:25;;;;;;;1.50;1.40;;;18.70;65.50;;;;;;4957802;28;20209;-67
2023/05/13 03:40:52;;;;;;;1.50;1.40;;;18.70;65.50;;;;;;4957984;28;20178;-67
2023/05/13 03:43:18;;;;;;;1.30;1.25;;;18.70;65.50;;;;;;4957591;28;20173;-66
2023/05/13 03:45:49;;;;;;;1.38;1.38;;;18.70;65.50;;;;;;4957469;28;20205;-67
2023/05/13 03:48:19;;;;;;;1.60;1.50;;;18.70;65.50;;;;;;4974065;28;20190;-66
2023/05/13 03:50:45;;;;;;;1.40;1.30;;;18.70;65.50;;;;;;4974972;28;20252;-67
2023/05/13 03:53:12;;;;;;;1.52;1.42;;;18.70;65.50;;;;;;4971477;28;20202;-67
2023/05/13 03:55:39;;;;;;;1.42;1.42;;;18.70;65.50;;;;;;4941255;28;20223;-66
2023/05/13 03:58:14;;;;;;;1.50;1.40;;;18.70;65.50;;;;;;4957470;28;20196;-67
2023/05/13 04:00:42;;;;;;;1.45;1.42;;;18.70;65.50;;;;;;4979091;28;20268;-67
2023/05/13 04:03:09;;;;;;;1.50;1.40;;;18.70;65.50;;;;;;4973327;28;20182;-66
2023/05/13 04:05:34;;;;;;;1.40;1.30;;;18.70;65.50;;;;;;4957060;28;20205;-67
2023/05/13 04:08:00;;;;;;;1.70;1.60;;;18.70;65.50;;;;;;4957059;28;20653;-67
2023/05/13 04:10:26;;;;;;;1.60;1.40;;;18.70;65.50;;;;;;4941140;28;20256;-67
2023/05/13 04:12:52;;;;;;;1.60;1.50;;;18.70;65.50;;;;;;4973492;28;20193;-67
2023/05/13 04:15:17;;;;;;;1.50;1.40;;;18.70;65.50;;;;;;4956693;28;20218;-66
2023/05/13 04:17:43;;;;;;;1.30;1.27;;;18.70;65.50;;;;;;4957198;28;20189;-67
2023/05/13 04:20:09;;;;;;;1.33;1.30;;;18.70;65.50;;;;;;4956935;28;20185;-66
2023/05/13 04:22:35;;;;;;;1.40;1.40;;;18.70;65.50;;;;;;4957339;28;20232;-66
2023/05/13 04:25:01;;;;;;;1.35;1.25;;;18.70;65.50;;;;;;4956743;28;20213;-67
2023/05/13 04:27:26;;;;;;;1.35;1.25;;;18.80;65.70;;;;;;4956707;28;20260;-67
2023/05/13 04:30:02;;;;;;;1.50;1.40;;;18.70;65.50;;;;;;4973057;28;20732;-66
2023/05/13 04:32:31;;;;;;;1.60;1.50;;;18.70;65.50;;;;;;4956995;28;20297;-67
2023/05/13 04:34:57;;;;;;;1.60;1.50;;;18.70;65.50;;;;;;4970935;28;20209;-66
2023/05/13 04:37:25;;;;;;;1.45;1.35;;;18.70;65.50;;;;;;4964038;28;20216;-67
2023/05/13 04:39:54;;;;;;;1.30;1.30;;;18.70;65.50;;;;;;4956958;28;20178;-67
2023/05/13 04:42:22;;;;;;;1.50;1.40;;;18.70;65.50;;;;;;4957041;28;20185;-67
2023/05/13 04:44:48;;;;;;;1.40;1.30;;;18.70;65.50;;;;;;4956658;28;20204;-67
2023/05/13 04:47:14;;;;;;;1.40;1.40;;;18.70;66.30;;;;;;4940430;28;20281;-66
2023/05/13 04:49:39;;;;;;;1.30;1.30;;;18.70;65.50;;;;;;4988788;28;20194;-67
2023/05/13 04:52:07;;;;;;;1.65;1.55;;;18.70;65.50;;;;;;4972457;28;20182;-67
2023/05/13 04:54:34;;;;;;;1.20;1.20;;;18.70;65.50;;;;;;4962818;28;20277;-66
2023/05/13 04:57:02;;;;;;;1.83;1.50;;;18.70;65.50;;;;;;4952086;28;20213;-67
2023/05/13 04:59:29;;;;;;;1.45;1.35;;;18.70;65.50;;;;;;4971908;28;20186;-67
2023/05/13 05:01:55;;;;;;;1.35;1.25;;;18.70;65.50;;;;;;4940409;28;20253;-66
2023/05/13 05:04:24;;;;;;;1.42;1.33;;;18.70;65.50;;;;;;4956434;28;20653;-67
2023/05/13 05:06:50;;;;;;;1.40;1.30;;;18.70;65.50;;;;;;4956442;28;20200;-67
2023/05/13 05:09:17;;;;;;;1.30;1.20;;;18.70;65.50;;;;;;4955994;28;20178;-67
2023/05/13 05:11:45;;;;;;;1.10;1.10;;;18.70;65.50;;;;;;4940599;28;20186;-67
2023/05/13 05:14:11;;;;;;;1.30;1.20;;;18.70;65.50;;;;;;4964189;28;20208;-67
2023/05/13 05:16:37;;;;;;;1.50;1.40;;;18.70;65.50;;;;;;4940022;28;20592;-67
2023/05/13 05:19:03;;;;;;;1.33;1.23;;;18.70;65.50;;;;;;4956000;28;20269;-66
2023/05/13 05:21:30;;;;;;;1.30;1.20;;;18.70;65.50;;;;;;4940403;28;20192;-67
2023/05/13 05:23:58;;;;;;;1.00;1.00;;;18.70;65.50;;;;;;4940462;28;20205;-67
2023/05/13 05:26:25;;;;;;;1.20;1.17;;;18.70;65.50;;;;;;4955558;28;20209;-67
2023/05/13 05:28:50;;;;;;;1.40;1.30;;;18.70;65.50;;;;;;4972284;28;20190;-67
2023/05/13 05:31:17;;;;;;;1.30;1.30;;;18.70;65.50;;;;;;4955856;28;20190;-67
2023/05/13 05:33:43;;;;;;;1.50;1.40;;;18.70;65.50;;;;;;4956034;28;20301;-67
2023/05/13 05:36:09;;;;;;;1.33;1.23;;;18.70;65.50;;;;;;4955379;28;20228;-67
2023/05/13 05:38:35;;;;;;;1.63;1.52;;;18.70;65.50;;;;;;4955587;28;20186;-67
2023/05/13 05:41:02;;;;;;;1.38;1.27;;;18.70;65.50;;;;;;4940135;28;20255;-67
2023/05/13 05:43:29;;;;;;;1.25;1.25;;;18.70;65.50;;;;;;4955208;28;20665;-67
2023/05/13 05:45:55;;;;;;;1.33;1.30;;;18.70;65.50;;;;;;4955238;28;20216;-67
2023/05/13 05:48:21;;;;;;;1.40;1.30;;;18.70;65.40;;;;;;4939819;28;20230;-68
2023/05/13 05:50:47;;;;;;;1.33;1.33;;;18.70;65.40;;;;;;4940174;28;20251;-67
2023/05/13 05:53:18;;;;;;;1.52;1.42;;;18.70;65.30;;;;;;4955495;28;20272;-68
2023/05/13 05:55:44;;;;;;;1.33;1.25;;;18.70;65.50;;;;;;4956718;28;20213;-68
2023/05/13 05:58:15;;;;;;;1.70;1.60;;;18.70;65.50;;;;;;4959630;28;20205;-67
2023/05/13 06:00:41;;;;;;;1.38;1.20;;;18.70;65.40;;;;;;4968098;28;20186;-67
2023/05/13 06:03:07;;;;;;;1.40;1.30;;;18.70;65.40;;;;;;4959587;28;20195;-68
2023/05/13 06:05:34;;;;;;;1.40;1.30;;;18.70;65.50;;;;;;4959094;28;20244;-66
2023/05/13 06:07:59;;;;;;;1.35;1.25;;;18.70;65.50;;;;;;4943381;28;20192;-67
2023/05/13 06:10:25;;;;;;;1.30;1.20;;;18.70;65.40;;;;;;4945563;28;20198;-66
2023/05/13 06:12:52;;;;;;;1.48;1.38;;;18.70;66.20;;;;;;4959397;28;20217;-66
2023/05/13 06:15:17;;;;;;;1.55;1.45;;;18.70;65.40;;;;;;4958912;28;20252;-67
2023/05/13 06:17:43;;;;;;;1.73;1.63;;;18.70;65.50;;;;;;4959119;28;20200;-66
2023/05/13 06:20:10;;;;;;;1.63;1.52;;;18.70;65.50;;;;;;4943404;28;20276;-66
2023/05/13 06:22:36;;;;;;;1.13;1.02;;;18.70;65.40;;;;;;4944198;28;20190;-67
2023/05/13 06:25:02;;;;;;;1.85;1.33;;;18.70;65.40;;;;;;4943073;28;20209;-67
2023/05/13 06:27:27;;;;;;;1.52;1.42;;;18.70;65.40;;;;;;4958810;28;20194;-67
2023/05/13 06:29:53;;;;;;;2.78;1.40;;;18.70;65.50;;;;;;4959392;28;20182;-67
2023/05/13 06:32:19;;;;;;;1.30;1.20;;;18.70;65.50;;;;;;4959096;28;20190;-66
2023/05/13 06:34:46;;;;;;;1.60;1.50;;;18.70;65.40;;;;;;4974956;28;20201;-66
2023/05/13 06:37:12;;;;;;;1.67;1.58;;;18.70;65.40;;;;;;4971669;28;20557;-66
2023/05/13 06:39:40;;;;;;;1.50;1.40;;;18.70;65.40;;;;;;4958693;28;20185;-67
2023/05/13 06:42:06;;;;;;;1.30;1.25;;;18.70;65.30;;;;;;4959155;28;20269;-67
2023/05/13 06:44:38;;;;;;;1.77;1.67;;;18.70;65.50;;;;;;4959048;28;20182;-66
2023/05/13 06:47:05;;;;;;;1.67;1.58;;;18.70;65.40;;;;;;4942975;28;20557;-67
2023/05/13 06:49:34;;;;;;;1.80;1.70;;;18.70;65.50;;;;;;4958709;28;20196;-67
2023/05/13 06:52:00;;;;;;;1.63;1.52;;;18.70;65.40;;;;;;4958727;28;20185;-67
2023/05/13 06:54:26;;;;;;;1.80;1.65;;;18.70;65.40;;;;;;4942295;28;20209;-67
2023/05/13 06:56:53;;;;;;;1.55;1.42;;;18.70;65.40;;;;;;4958769;28;20245;-67
2023/05/13 06:59:20;;;;;;;2.50;1.70;;;18.70;65.40;;;;;;4958591;28;20186;-67
2023/05/13 07:01:46;;;;;;;1.60;1.50;;;18.70;65.50;;;;;;4958644;28;20192;-67
2023/05/13 07:04:11;;;;;;;1.83;1.73;;;18.70;66.20;;;;;;4958417;28;20185;-67
2023/05/13 07:06:37;;;;;;;1.77;1.67;;;18.70;65.50;;;;;;4957651;28;20209;-66
2023/05/13 07:09:03;;;;;;;1.90;1.45;;;18.70;65.50;;;;;;4958460;28;20684;-66
2023/05/13 07:11:29;;;;;;;1.70;1.60;;;18.70;65.40;;;;;;4958639;28;20200;-66
2023/05/13 07:13:54;;;;;;;1.70;1.60;;;18.70;65.50;;;;;;4958455;28;20245;-66
2023/05/13 07:16:20;;;;;;;1.50;1.40;;;18.70;65.40;;;;;;4957905;28;20225;-67
2023/05/13 07:18:46;;;;;;;2.03;1.80;;;18.70;65.50;;;;;;4958194;28;20229;-66
2023/05/13 07:21:14;;;;;;;1.70;1.60;;;18.70;65.40;;;;;;4975438;28;20229;-67
2023/05/13 07:23:39;;;;;;;2.35;1.50;;;18.70;65.40;;;;;;4957972;28;20182;-66
2023/05/13 07:26:05;;;;;;;1.65;1.55;;;18.70;65.40;;;;;;4957935;28;20209;-66
2023/05/13 07:28:31;;;;;;;1.90;1.52;;;18.70;65.40;;;;;;4974081;28;20259;-67
2023/05/13 07:30:57;;;;;;;1.60;1.50;;;18.70;65.50;;;;;;4941946;28;20186;-66
2023/05/13 07:33:23;;;;;;;1.75;1.65;;;18.70;65.30;;;;;;4958019;28;20294;-66
2023/05/13 07:35:49;;;;;;;1.75;1.65;;;18.70;65.30;;;;;;4974824;28;20345;-66
2023/05/13 07:38:14;;;;;;;1.65;1.55;;;18.70;65.40;;;;;;4958211;28;20186;-66
2023/05/13 07:40:40;;;;;;;1.60;1.50;;;18.60;65.20;;;;;;4941943;28;20190;-66
2023/05/13 07:43:06;;;;;;;1.98;1.65;;;18.70;65.30;;;;;;4957711;28;20277;-67
2023/05/13 07:45:32;;;;;;;1.70;1.60;;;18.70;65.30;;;;;;4957507;28;20296;-66
2023/05/13 07:47:57;;;;;;;1.75;1.50;;;18.70;65.30;;;;;;4957871;28;20280;-66
2023/05/13 07:50:23;;;;;;;2.00;1.80;;;18.70;65.30;;;;;;4971098;28;20183;-66
2023/05/13 07:52:50;;;;;;;2.58;1.40;;;18.70;65.30;;;;;;4973696;28;20189;-66
2023/05/13 07:55:17;;;;;;;2.50;1.83;;;18.70;65.30;;;;;;4957314;28;20333;-66
2023/05/13 07:57:42;;;;;;;1.63;1.52;;;18.70;65.40;;;;;;4957685;28;20185;-66
2023/05/13 08:00:09;;;;;;;1.95;1.60;;;18.70;65.30;;;;;;4957805;28;20189;-67
2023/05/13 08:02:42;;;;;;;1.60;1.50;;;18.70;65.30;;;;;;4942173;28;20181;-66
2023/05/13 08:05:09;;;;;;;1.80;1.70;;;18.70;65.30;;;;;;4957472;28;20216;-66
2023/05/13 08:07:35;;;;;;;2.35;1.98;;;18.70;65.30;;;;;;4957145;28;20196;-67
2023/05/13 08:10:01;;;;;;;1.73;1.63;;;18.70;65.30;;;;;;4957626;28;20189;-66
2023/05/13 08:12:27;;;;;;;2.85;1.80;;;18.70;65.30;;;;;;4941174;28;20196;-66
2023/05/13 08:14:52;;;;;;;2.40;1.90;;;18.70;65.30;;;;;;4957033;28;20212;-66
2023/05/13 08:17:18;;;;;;;1.83;1.73;;;18.70;65.30;;;;;;4957032;28;20206;-67
2023/05/13 08:19:45;;;;;;;1.83;1.73;;;18.70;65.30;;;;;;4956692;28;20207;-66
2023/05/13 08:22:11;;;;;;;1.70;1.60;;;18.70;65.30;;;;;;4941073;28;20182;-66
2023/05/13 08:24:39;;;;;;;2.05;1.80;;;18.70;65.30;;;;;;4956545;28;20182;-66
2023/05/13 08:27:05;;;;;;;2.22;1.90;;;18.70;65.20;;;;;;4969711;28;20274;-67
2023/05/13 08:29:30;;;;;;;1.88;1.58;;;18.70;65.20;;;;;;4954781;28;20638;-66
2023/05/13 08:31:56;;;;;;;2.13;1.92;;;18.70;65.30;;;;;;4940937;28;20185;-66
2023/05/13 08:34:22;;;;;;;1.65;1.55;;;18.70;65.20;;;;;;4956825;28;20194;-65
2023/05/13 08:36:48;;;;;;;1.90;1.80;;;18.70;65.50;;;;;;4956637;28;20268;-66
2023/05/13 08:39:13;;;;;;;2.00;1.80;;;18.70;65.30;;;;;;4956907;28;20190;-67
2023/05/13 08:41:40;;;;;;;2.22;1.58;;;18.70;65.20;;;;;;4973005;28;20193;-67
2023/05/13 08:44:11;;;;;;;1.80;1.70;;;18.70;65.30;;;;;;4956800;28;20186;-66
2023/05/13 08:46:40;;;;;;;1.92;1.70;;;18.70;65.30;;;;;;4956525;28;20284;-66
2023/05/13 08:49:06;;;;;;;1.95;1.77;;;18.70;65.30;;;;;;4973889;28;20181;-66
2023/05/13 08:51:32;;;;;;;1.77;1.65;;;18.70;65.30;;;;;;4956821;28;20217;-66
2023/05/13 08:53:59;;;;;;;1.80;1.70;;;18.70;65.20;;;;;;4940581;28;20232;-66
2023/05/13 08:56:27;;;;;;;2.05;1.95;;;18.70;65.30;;;;;;4973378;28;20233;-66
2023/05/13 08:58:54;;;;;;;1.88;1.70;;;18.70;65.30;;;;;;4973809;28;20269;-67
2023/05/13 09:01:22;;;;;;;1.92;1.77;;;18.70;65.20;;;;;;4956429;28;20753;-66
2023/05/13 09:04:01;;;;;;;1.80;1.65;;;18.70;65.20;;;;;;4973735;28;20259;-66
2023/05/13 09:06:27;;;;;;;2.35;1.80;;;18.70;65.20;;;;;;4970401;28;20217;-66
2023/05/13 09:08:54;;;;;;;2.10;1.90;;;18.70;65.20;;;;;;4940407;28;20178;-66
2023/05/13 09:11:21;;;;;;;1.60;1.50;;;18.70;65.10;;;;;;4973935;28;20190;-66
2023/05/13 09:14:04;;;;;;;1.88;1.77;;;18.70;65.10;;;;;;4956010;28;20232;-67
2023/05/13 09:16:31;;;;;;;2.17;1.98;;;18.70;65.20;;;;;;4955743;28;20218;-67
2023/05/13 09:19:03;;;;;;;1.70;1.60;;;18.70;65.20;;;;;;4956128;28;20190;-67
2023/05/13 09:21:32;;;;;;;2.95;1.85;;;18.70;65.10;;;;;;4956118;28;20186;-66
2023/05/13 09:24:10;;;;;;;1.77;1.67;;;18.70;65.20;;;;;;4940336;28;20244;-66
2023/05/13 09:26:36;;;;;;;2.20;1.80;;;18.70;65.20;;;;;;4972058;28;20248;-66
2023/05/13 09:29:25;;;;;;;1.92;1.83;;;18.70;65.20;;;;;;4955895;28;20185;-67
2023/05/13 09:32:00;;;;;;;1.77;1.67;;;18.70;65.10;;;;;;4972330;28;20182;-67
2023/05/13 09:34:32;;;;;;;1.80;1.70;;;18.70;65.20;;;;;;4963711;28;20189;-66
2023/05/13 09:37:07;;;;;;;2.20;2.00;;;18.70;65.20;;;;;;4955781;28;20219;-67
2023/05/13 09:39:40;;;;;;;2.03;1.92;;;18.70;65.20;;;;;;4955844;28;20189;-67
2023/05/13 09:42:15;;;;;;;1.85;1.73;;;18.70;65.10;;;;;;4955842;28;20232;-66
2023/05/13 09:44:43;;;;;;;2.50;1.98;;;18.70;65.10;;;;;;4940354;28;20284;-67
2023/05/13 09:47:16;;;;;;;1.90;1.80;;;18.70;65.10;;;;;;4939861;28;20200;-67
2023/05/13 09:49:51;;;;;;;1.83;1.73;;;18.70;65.10;;;;;;4955670;28;20631;-66
2023/05/13 09:52:17;;;;;;;2.10;1.90;;;18.70;65.10;;;;;;4968446;28;20182;-67
2023/05/13 09:54:43;;;;;;;2.00;1.90;;;18.70;65.20;;;;;;4954171;28;20310;-66
2023/05/13 09:57:12;;;;;;;1.95;1.77;;;18.70;65.90;;;;;;4955797;28;20209;-67
2023/05/13 09:59:37;;;;;;;1.92;1.83;;;18.70;65.10;;;;;;4939666;28;20182;-67
2023/05/13 10:02:06;;;;;;;1.75;1.65;;;18.70;65.10;;;;;;4955810;28;20190;-67
2023/05/13 10:04:32;;;;;;;2.08;1.88;;;18.70;65.10;;;;;;4955535;28;20186;-67
2023/05/13 10:07:02;;;;;;;2.10;2.00;;;18.70;65.10;;;;;;4972723;28;20197;-67
2023/05/13 10:09:34;;;;;;;1.85;1.75;;;18.70;65.10;;;;;;4955366;28;20190;-65
2023/05/13 10:12:02;;;;;;;2.42;2.00;;;18.70;65.10;;;;;;4971270;28;20186;-66
2023/05/13 10:14:29;;;;;;;1.80;1.70;;;18.70;65.20;;;;;;4956075;28;20198;-66
2023/05/13 10:16:58;;;;;;;2.20;2.10;;;18.70;65.10;;;;;;4972612;28;20703;-67
2023/05/13 10:19:25;;;;;;;3.13;2.00;;;18.70;65.10;;;;;;4955661;28;20186;-67
2023/05/13 10:21:53;;;;;;;2.10;2.00;;;18.70;65.20;;;;;;4955555;28;20228;-66
2023/05/13 10:24:21;;;;;;;1.88;1.75;;;18.70;65.90;;;;;;4955881;28;20189;-66
2023/05/13 10:26:51;;;;;;;1.75;1.65;;;18.70;65.20;;;;;;4955248;28;20205;-66
2023/05/13 10:29:18;;;;;;;1.80;1.70;;;18.70;65.10;;;;;;4955724;28;20257;-67
2023/05/13 10:31:46;;;;;;;2.15;2.05;;;18.70;65.10;;;;;;4972344;28;20208;-65
2023/05/13 10:34:12;;;;;;;2.08;1.88;;;18.70;65.10;;;;;;4955047;28;20185;-67
2023/05/13 10:37:16;;;;;;;2.10;1.77;;;18.70;65.10;;;;;;4955001;28;20217;-66
2023/05/13 10:39:54;;;;;;;1.90;1.80;;;18.70;65.10;;;;;;4955242;28;20181;-67
2023/05/13 10:43:16;;;;;;;1.90;1.80;;;18.70;65.10;;;;;;4975143;28;20198;-66
2023/05/13 10:45:54;;;;;;;2.10;1.98;;;18.70;65.10;;;;;;4944411;28;20235;-66
2023/05/13 10:48:21;;;;;;;1.83;1.73;;;18.70;65.10;;;;;;4958856;28;20193;-67
2023/05/13 10:50:56;;;;;;;2.17;2.00;;;18.70;65.10;;;;;;4958357;28;20548;-66
2023/05/13 10:53:27;;;;;;;2.10;2.00;;;18.70;65.10;;;;;;4958677;28;20240;-66
2023/05/13 10:55:58;;;;;;;2.30;2.10;;;18.70;65.10;;;;;;4958401;28;20229;-66
2023/05/13 10:58:32;;;;;;;1.80;1.70;;;18.70;65.10;;;;;;4974360;28;20193;-66
2023/05/13 11:01:25;;;;;;;1.70;1.60;;;18.70;65.10;;;;;;4968328;28;20218;-67
2023/05/13 11:03:58;;;;;;;1.92;1.83;;;18.70;65.00;;;;;;4942706;28;20228;-67
2023/05/13 11:06:39;;;;;;;2.20;2.05;;;18.70;65.10;;;;;;4958298;28;20229;-67
2023/05/13 11:09:19;;;;;;;2.22;2.03;;;18.70;65.10;;;;;;4968072;28;20196;-67
2023/05/13 11:11:54;;;;;;;2.05;1.85;;;18.70;65.20;;;;;;4982491;28;20198;-66
2023/05/13 11:14:23;;;;;;;2.65;2.08;;;18.70;65.20;;;;;;4942311;28;20192;-67
2023/05/13 11:16:58;;;;;;;2.08;1.80;;;18.70;65.10;;;;;;4957934;28;20205;-66
2023/05/13 11:19:30;;;;;;;1.85;1.75;;;18.70;65.30;;;;;;4958418;28;20193;-66
2023/05/13 11:22:09;;;;;;;1.92;1.83;;;18.70;65.20;;;;;;4941968;28;20206;-67
2023/05/13 11:24:35;;;;;;;2.10;2.00;;;18.70;65.20;;;;;;4941964;28;20190;-66
2023/05/13 11:27:17;;;;;;;2.45;1.90;;;18.70;65.20;;;;;;4958055;28;20279;-66
2023/05/13 11:29:51;;;;;;;2.30;2.10;;;18.70;66.00;;;;;;4975233;28;20196;-67
2023/05/13 11:32:51;;;;;;;1.83;1.67;;;18.70;65.20;;;;;;4957890;28;20193;-66
2023/05/13 11:35:22;;;;;;;3.15;2.28;;;18.70;65.20;;;;;;4962935;28;20238;-67
2023/05/13 11:37:48;;;;;;;2.20;1.98;;;18.70;65.30;;;;;;4975272;28;20182;-66
2023/05/13 11:40:26;;;;;;;1.88;1.77;;;18.70;65.20;;;;;;4957955;28;20244;-67
2023/05/13 11:42:53;;;;;;;2.15;2.05;;;18.70;65.30;;;;;;4941796;28;20248;-66
2023/05/13 11:45:21;;;;;;;2.03;1.92;;;18.70;65.30;;;;;;4974902;28;20280;-66
2023/05/13 11:47:47;;;;;;;2.10;2.00;;;18.70;65.20;;;;;;4957561;28;20233;-67
2023/05/13 11:50:26;;;;;;;1.77;1.67;;;18.70;65.20;;;;;;4942080;28;20224;-66
2023/05/13 11:52:58;;;;;;;1.90;1.80;;;18.70;65.20;;;;;;4964725;28;20194;-67
2023/05/13 11:55:34;;;;;;;2.00;1.90;;;18.70;65.20;;;;;;4957351;28;20222;-66
2023/05/13 11:58:01;;;;;;;1.90;1.80;;;18.70;65.20;;;;;;4960984;28;20181;-66
2023/05/13 12:00:33;;;;;;;2.08;1.90;;;18.70;65.20;;;;;;4980323;28;20178;-67
2023/05/13 12:03:01;;;;;;;2.42;2.22;;;18.70;65.20;;;;;;4957575;28;20182;-66
2023/05/13 12:05:28;;;;;;;2.10;2.00;;;18.70;65.70;;;;;;4970249;28;20222;-66
2023/05/13 12:07:57;;;;;;;2.25;2.05;;;18.70;65.30;;;;;;4973452;28;20281;-66
2023/05/13 12:10:24;;;;;;;2.30;2.13;;;18.70;65.20;;;;;;4989694;28;20194;-66
2023/05/13 12:12:50;;;;;;;2.50;2.30;;;18.70;65.30;;;;;;4981548;28;20214;-66
2023/05/13 12:15:18;;;;;;;2.33;2.13;;;18.70;65.30;;;;;;4956967;28;20233;-66
2023/05/13 12:17:46;;;;;;;2.30;2.10;;;18.70;65.30;;;;;;4956949;28;20201;-67
2023/05/13 12:20:17;;;;;;;2.08;1.92;;;18.70;65.30;;;;;;4974380;28;20261;-67
2023/05/13 12:22:42;;;;;;;2.30;2.20;;;18.70;65.30;;;;;;4941054;28;20262;-67
2023/05/13 12:25:33;;;;;;;2.35;2.15;;;18.70;65.30;;;;;;4984729;28;20210;-66
2023/05/13 12:28:15;;;;;;;2.20;2.00;;;18.70;65.30;;;;;;4974027;28;20200;-67
2023/05/13 12:31:00;;;;;;;2.40;2.20;;;18.70;65.30;;;;;;4989514;28;20190;-66
2023/05/13 12:33:29;;;;;;;2.25;2.05;;;18.70;65.30;;;;;;4956820;28;20196;-66
2023/05/13 12:36:21;;;;;;;2.35;2.17;;;18.70;65.30;;;;;;4973680;28;20232;-67
2023/05/13 12:39:08;;;;;;;2.35;2.15;;;18.70;65.30;;;;;;4956580;28;20200;-66
2023/05/13 12:41:37;;;;;;;2.00;1.90;;;18.70;65.30;;;;;;4979827;28;20200;-67
2023/05/13 12:44:13;;;;;;;2.20;2.00;;;18.70;65.40;;;;;;4953768;28;20182;-66
2023/05/13 12:46:56;;;;;;;2.22;2.10;;;18.70;65.30;;;;;;4969547;28;20210;-66
2023/05/13 12:49:22;;;;;;;3.40;1.88;;;18.70;65.30;;;;;;4956702;28;20224;-67
2023/05/13 12:51:50;;;;;;;2.40;2.20;;;18.70;65.30;;;;;;4956174;28;20696;-66
2023/05/13 12:54:16;;;;;;;2.40;2.20;;;18.70;65.40;;;;;;4956519;28;20196;-66
2023/05/13 12:56:42;;;;;;;2.35;2.15;;;18.70;65.40;;;;;;4956103;28;20217;-66